createdAt,value
2022-10-06T00:01:23.675Z,100501.34
2022-10-06T00:03:50.408Z,100502.16
2022-10-06T00:06:21.827Z,100508.69
2022-10-06T00:08:48.740Z,100505.75
2022-10-06T00:11:18.000Z,100515.22
2022-10-06T00:13:45.654Z,100514.22
2022-10-06T00:16:18.609Z,100525.34
2022-10-06T00:18:45.889Z,100522.44
2022-10-06T00:21:14.375Z,100528.13
2022-10-06T00:23:41.959Z,100530.03
2022-10-06T00:26:17.695Z,100522.44
2022-10-06T00:28:47.685Z,100531.94
2022-10-06T00:31:15.105Z,100534.66
2022-10-06T00:33:41.857Z,100547.03
2022-10-06T00:36:08.843Z,100545.78
2022-10-06T00:38:35.616Z,100551.25
2022-10-06T00:41:02.618Z,100559.44
2022-10-06T00:43:49.197Z,100566.16
2022-10-06T00:46:22.363Z,100563.25
2022-10-06T00:49:26.146Z,100567.47
2022-10-06T00:51:58.749Z,100577.13
2022-10-06T00:54:28.331Z,100579.88
2022-10-06T00:56:58.387Z,100579.69
2022-10-06T00:59:25.076Z,100576.09
2022-10-06T01:02:01.750Z,100582.22
2022-10-06T01:04:33.738Z,100587.69
2022-10-06T01:07:01.636Z,100586.22
2022-10-06T01:09:30.568Z,100604.91
2022-10-06T01:12:01.421Z,100608.28
2022-10-06T01:14:29.251Z,100607.50
2022-10-06T01:17:02.736Z,100609.59
2022-10-06T01:20:04.940Z,100605.81
2022-10-06T01:22:41.560Z,100606.88
2022-10-06T01:25:10.183Z,100612.13
2022-10-06T01:27:38.974Z,100607.50
2022-10-06T01:30:08.616Z,100605.00
2022-10-06T01:32:38.300Z,100608.81
2022-10-06T01:35:07.570Z,100611.94
2022-10-06T01:37:35.655Z,100611.75
2022-10-06T01:40:02.300Z,100610.50
2022-10-06T01:42:31.895Z,100622.25
2022-10-06T01:44:59.557Z,100607.34
2022-10-06T01:47:26.259Z,100614.28
2022-10-06T01:49:54.922Z,100614.69
2022-10-06T01:52:22.005Z,100617.63
2022-10-06T01:54:49.589Z,100625.41
2022-10-06T01:57:19.295Z,100624.56
2022-10-06T01:59:45.868Z,100627.91
2022-10-06T02:02:12.518Z,100626.66
2022-10-06T02:04:40.133Z,100626.47
2022-10-06T02:07:07.702Z,100624.78
2022-10-06T02:09:34.367Z,100629.81
2022-10-06T02:12:01.933Z,100629.59
2022-10-06T02:14:30.474Z,100634.44
2022-10-06T02:17:07.243Z,100631.06
2022-10-06T02:19:47.783Z,100631.06
2022-10-06T02:22:23.221Z,100632.97
2022-10-06T02:24:50.051Z,100626.06
2022-10-06T02:27:25.016Z,100631.72
2022-10-06T02:29:52.168Z,100631.06
2022-10-06T02:32:18.861Z,100635.69
2022-10-06T02:34:46.332Z,100633.78
2022-10-06T02:37:17.927Z,100635.47
2022-10-06T02:39:45.980Z,100640.09
2022-10-06T02:42:13.551Z,100636.53
2022-10-06T02:44:40.692Z,100640.75
2022-10-06T02:47:26.362Z,100649.34
2022-10-06T02:50:07.665Z,100651.44
2022-10-06T02:52:36.683Z,100646.81
2022-10-06T02:55:06.186Z,100655.00
2022-10-06T02:57:33.791Z,100653.31
2022-10-06T03:00:01.365Z,100652.28
2022-10-06T03:02:31.982Z,100651.44
2022-10-06T03:05:06.586Z,100654.16
2022-10-06T03:07:34.173Z,100660.69
2022-10-06T03:10:01.793Z,100660.25
2022-10-06T03:12:35.194Z,100656.28
2022-10-06T03:15:11.988Z,100655.84
2022-10-06T03:17:38.709Z,100660.03
2022-10-06T03:20:08.817Z,100668.44
2022-10-06T03:22:45.681Z,100666.34
2022-10-06T03:25:16.240Z,100671.81
2022-10-06T03:27:43.484Z,100671.19
2022-10-06T03:30:10.467Z,100663.00
2022-10-06T03:32:38.240Z,100669.47
2022-10-06T03:35:05.758Z,100668.44
2022-10-06T03:37:34.345Z,100685.22
2022-10-06T03:40:01.930Z,100676.84
2022-10-06T03:42:29.525Z,100686.06
2022-10-06T03:48:00.152Z,100685.66
2022-10-06T03:50:26.950Z,100683.13
2022-10-06T03:52:57.022Z,100686.94
2022-10-06T03:55:32.865Z,100691.53
2022-10-06T03:57:59.733Z,100698.25
2022-10-06T04:00:26.588Z,100699.94
2022-10-06T04:02:58.940Z,100704.34
2022-10-06T04:05:31.752Z,100711.88
2022-10-06T04:07:58.650Z,100713.78
2022-10-06T04:10:25.339Z,100712.75
2022-10-06T04:12:52.420Z,100718.59
2022-10-06T04:15:19.181Z,100726.63
2022-10-06T04:17:46.957Z,100726.78
2022-10-06T04:20:21.443Z,100721.16
2022-10-06T04:22:48.146Z,100724.72
2022-10-06T04:25:14.877Z,100727.44
2022-10-06T04:27:41.507Z,100732.06
2022-10-06T04:30:08.679Z,100721.78
2022-10-06T04:32:35.384Z,100728.06
2022-10-06T04:35:03.089Z,100730.19
2022-10-06T04:37:32.558Z,100729.75
2022-10-06T04:40:00.280Z,100731.84
2022-10-06T04:42:34.915Z,100727.22
2022-10-06T04:45:02.498Z,100738.38
2022-10-06T04:50:32.800Z,100732.91
2022-10-06T04:52:59.785Z,100738.16
2022-10-06T04:55:26.480Z,100736.88
2022-10-06T04:57:58.204Z,100750.13
2022-10-06T05:00:28.960Z,100752.63
2022-10-06T05:02:57.788Z,100753.47
2022-10-06T05:05:25.382Z,100762.50
2022-10-06T05:07:52.099Z,100758.75
2022-10-06T05:10:19.543Z,100759.78
2022-10-06T05:12:47.148Z,100763.78
2022-10-06T05:15:15.735Z,100769.66
2022-10-06T05:24:37.948Z,100786.03
2022-10-06T05:27:07.548Z,100783.31
2022-10-06T05:29:34.949Z,100787.50
2022-10-06T05:32:15.718Z,100792.38
2022-10-06T05:34:45.164Z,100795.72
2022-10-06T05:37:11.973Z,100801.81
2022-10-06T05:39:39.740Z,100800.31
2022-10-06T05:42:06.414Z,100806.66
2022-10-06T05:44:34.605Z,100806.22
2022-10-06T05:47:01.489Z,100809.56
2022-10-06T05:49:28.241Z,100813.97
2022-10-06T05:51:58.509Z,100812.94
2022-10-06T05:54:26.085Z,100818.81
2022-10-06T05:56:53.669Z,100815.03
2022-10-06T05:59:20.331Z,100823.03
2022-10-06T06:01:47.216Z,100818.41
2022-10-06T06:04:14.299Z,100813.78
2022-10-06T06:06:43.829Z,100814.22
2022-10-06T06:09:13.616Z,100815.66
2022-10-06T06:11:43.467Z,100819.44
2022-10-06T06:14:14.253Z,100817.56
2022-10-06T06:16:48.229Z,100817.78
2022-10-06T06:19:19.047Z,100828.47
2022-10-06T06:21:48.681Z,100818.63
2022-10-06T06:24:15.347Z,100826.81
2022-10-06T06:26:42.109Z,100819.44
2022-10-06T06:29:09.396Z,100837.72
2022-10-06T06:31:39.063Z,100836.00
2022-10-06T06:34:09.434Z,100838.09
2022-10-06T06:36:47.261Z,100838.31
2022-10-06T06:39:15.823Z,100835.53
2022-10-06T06:41:49.434Z,100845.84
2022-10-06T06:44:17.189Z,100848.97
2022-10-06T06:46:48.308Z,100851.47
2022-10-06T06:49:16.681Z,100855.66
2022-10-06T06:51:49.661Z,100853.59
2022-10-06T06:54:17.156Z,100852.31
2022-10-06T06:56:46.014Z,100854.22
2022-10-06T06:59:13.607Z,100854.63
2022-10-06T07:01:45.800Z,100860.72
2022-10-06T07:04:14.269Z,100860.50
2022-10-06T07:06:42.383Z,100864.72
2022-10-06T07:09:12.828Z,100876.72
2022-10-06T07:11:40.438Z,100875.47
2022-10-06T07:14:12.698Z,100878.41
2022-10-06T07:16:59.333Z,100873.19
2022-10-06T07:19:45.047Z,100879.91
2022-10-06T07:22:30.194Z,100881.00
2022-10-06T07:25:12.654Z,100881.00
2022-10-06T07:27:42.797Z,100881.44
2022-10-06T07:30:29.021Z,100882.47
2022-10-06T07:32:56.082Z,100897.19
2022-10-06T07:35:24.636Z,100887.97
2022-10-06T07:37:53.392Z,100894.47
2022-10-06T07:40:20.315Z,100893.63
2022-10-06T07:42:52.312Z,100893.22
2022-10-06T07:45:40.699Z,100896.59
2022-10-06T07:48:18.257Z,100886.91
2022-10-06T07:50:48.926Z,100891.97
2022-10-06T07:53:19.258Z,100889.22
2022-10-06T07:55:50.264Z,100891.56
2022-10-06T07:58:19.712Z,100900.38
2022-10-06T08:00:50.237Z,100904.56
2022-10-06T08:03:23.054Z,100900.56
2022-10-06T08:05:57.928Z,100903.25
2022-10-06T08:08:25.578Z,100915.03
2022-10-06T08:10:54.428Z,100911.84
2022-10-06T08:13:21.609Z,100908.88
2022-10-06T08:15:50.593Z,100921.25
2022-10-06T08:18:52.957Z,100916.38
2022-10-06T08:21:22.365Z,100915.28
2022-10-06T08:23:51.130Z,100921.56
2022-10-06T08:26:19.656Z,100924.06
2022-10-06T08:28:54.284Z,100925.69
2022-10-06T08:31:22.698Z,100925.22
2022-10-06T08:33:54.598Z,100917.81
2022-10-06T08:36:21.526Z,100923.88
2022-10-06T08:38:50.115Z,100920.63
2022-10-06T08:41:32.137Z,100925.63
2022-10-06T08:44:16.617Z,100924.97
2022-10-06T08:46:46.792Z,100922.78
2022-10-06T08:49:22.119Z,100917.88
2022-10-06T08:52:12.870Z,100912.50
2022-10-06T08:54:58.404Z,100912.84
2022-10-06T08:57:42.476Z,100911.25
2022-10-06T09:00:14.231Z,100918.38
2022-10-06T09:02:47.079Z,100922.28
2022-10-06T09:05:25.280Z,100935.25
2022-10-06T09:08:29.606Z,100930.06
2022-10-06T09:11:14.925Z,100932.66
2022-10-06T09:13:53.279Z,100930.59
2022-10-06T09:16:30.919Z,100933.88
2022-10-06T09:19:33.530Z,100932.50
2022-10-06T09:22:04.655Z,100927.03
2022-10-06T09:24:37.536Z,100923.59
2022-10-06T09:27:33.842Z,100922.69
2022-10-06T09:30:04.883Z,100925.56
2022-10-06T09:32:33.306Z,100926.53
2022-10-06T09:35:00.022Z,100924.75
2022-10-06T09:37:27.380Z,100919.41
2022-10-06T09:39:54.735Z,100908.56
2022-10-06T09:42:26.380Z,100918.63
2022-10-06T09:45:01.130Z,100917.22
2022-10-06T09:47:34.836Z,100930.28
2022-10-06T09:50:22.148Z,100932.78
2022-10-06T09:52:59.219Z,100932.78
2022-10-06T09:55:29.176Z,100933.47
2022-10-06T09:57:57.375Z,100928.47
2022-10-06T10:00:37.423Z,100927.31
2022-10-06T10:03:11.777Z,100923.50
2022-10-06T10:05:46.137Z,100920.88
2022-10-06T10:08:32.262Z,100915.97
2022-10-06T10:11:07.901Z,100923.38
2022-10-06T10:13:43.234Z,100917.47
2022-10-06T10:16:19.955Z,100911.00
2022-10-06T10:18:48.121Z,100922.75
2022-10-06T10:21:33.352Z,100911.97
2022-10-06T10:24:03.925Z,100911.88
2022-10-06T10:26:53.797Z,100913.66
2022-10-06T10:30:02.374Z,100908.50
2022-10-06T10:33:07.635Z,100902.63
2022-10-06T10:35:40.631Z,100897.81
2022-10-06T10:38:19.102Z,100905.59
2022-10-06T10:40:50.531Z,100887.75
2022-10-06T10:43:29.581Z,100899.69
2022-10-06T10:46:25.046Z,100906.41
2022-10-06T10:49:08.027Z,100901.13
2022-10-06T10:51:42.071Z,100917.88
2022-10-06T10:54:28.836Z,100896.38
2022-10-06T10:56:57.451Z,100900.50
2022-10-06T10:59:31.833Z,100908.69
2022-10-06T11:02:35.754Z,100910.38
2022-10-06T11:05:16.348Z,100913.22
2022-10-06T11:08:13.701Z,100914.06
2022-10-06T11:10:58.274Z,100913.84
2022-10-06T11:13:48.271Z,100927.72
2022-10-06T11:16:51.307Z,100915.72
2022-10-06T11:19:28.880Z,100918.19
2022-10-06T11:22:20.906Z,100920.00
2022-10-06T11:24:59.805Z,100928.56
2022-10-06T11:27:55.711Z,100928.22
2022-10-06T11:30:26.809Z,100924.97
2022-10-06T11:33:02.056Z,100910.94
2022-10-06T11:35:41.524Z,100919.84
2022-10-06T11:38:16.129Z,100918.31
2022-10-06T11:41:01.265Z,100903.53
2022-10-06T11:43:46.213Z,100914.28
2022-10-06T11:46:12.880Z,100915.44
2022-10-06T11:48:40.619Z,100910.81
2022-10-06T11:51:25.479Z,100904.41
2022-10-06T11:53:52.855Z,100903.25
2022-10-06T11:56:19.527Z,100909.19
2022-10-06T11:58:52.205Z,100904.28
2022-10-06T12:01:31.130Z,100906.50
2022-10-06T12:04:05.450Z,100898.84
2022-10-06T12:06:44.075Z,100895.63
2022-10-06T12:09:32.796Z,100902.91
2022-10-06T12:12:08.388Z,100883.66
2022-10-06T12:18:04.409Z,100903.66
2022-10-06T12:20:42.739Z,100887.03
2022-10-06T12:23:09.344Z,100879.31
2022-10-06T12:25:52.174Z,100877.13
2022-10-06T12:28:34.288Z,100878.34
2022-10-06T12:31:06.526Z,100870.59
2022-10-06T12:33:43.838Z,100859.56
2022-10-06T12:36:25.420Z,100879.56
2022-10-06T12:39:07.282Z,100863.97
2022-10-06T12:42:14.004Z,100855.63
2022-10-06T12:44:51.771Z,100856.13
2022-10-06T12:47:42.047Z,100854.78
2022-10-06T12:50:25.475Z,100851.50
2022-10-06T12:53:04.280Z,100860.63
2022-10-06T12:55:42.339Z,100850.09
2022-10-06T12:58:20.367Z,100849.53
2022-10-06T13:00:48.038Z,100851.75
2022-10-06T13:03:24.328Z,100858.34
2022-10-06T13:05:55.196Z,100848.56
2022-10-06T13:08:28.268Z,100851.03
2022-10-06T13:11:26.476Z,100847.09
2022-10-06T13:13:55.485Z,100845.44
2022-10-06T13:16:26.295Z,100849.00
2022-10-06T13:18:58.543Z,100828.81
2022-10-06T13:21:26.183Z,100837.72
2022-10-06T13:23:53.281Z,100836.31
2022-10-06T13:26:29.399Z,100832.16
2022-10-06T13:28:58.395Z,100831.63
2022-10-06T13:31:26.807Z,100833.00
2022-10-06T13:34:00.679Z,100829.34
2022-10-06T13:36:29.723Z,100826.03
2022-10-06T13:38:56.812Z,100812.78
2022-10-06T13:41:38.116Z,100816.13
2022-10-06T13:44:22.409Z,100809.47
2022-10-06T13:46:56.796Z,100818.81
2022-10-06T13:49:31.194Z,100812.13
2022-10-06T13:52:08.854Z,100804.69
2022-10-06T13:54:46.484Z,100800.81
2022-10-06T13:57:46.682Z,100793.31
2022-10-06T14:00:16.262Z,100794.72
2022-10-06T14:02:45.188Z,100804.16
2022-10-06T14:05:29.528Z,100800.81
2022-10-06T14:07:59.925Z,100792.78
2022-10-06T14:10:31.553Z,100799.13
2022-10-06T14:13:06.233Z,100805.53
2022-10-06T14:15:47.071Z,100790.84
2022-10-06T14:18:27.392Z,100795.56
2022-10-06T14:20:57.198Z,100803.84
2022-10-06T14:23:34.958Z,100798.59
2022-10-06T14:26:01.821Z,100796.34
2022-10-06T14:28:28.771Z,100802.16
2022-10-06T14:30:56.426Z,100804.31
2022-10-06T14:33:27.322Z,100804.00
2022-10-06T14:35:54.830Z,100805.97
2022-10-06T14:38:22.299Z,100801.81
2022-10-06T14:40:49.108Z,100801.50
2022-10-06T14:43:15.809Z,100801.22
2022-10-06T14:45:52.309Z,100794.28
2022-10-06T14:48:19.088Z,100791.50
2022-10-06T14:50:46.962Z,100795.16
2022-10-06T14:53:17.598Z,100789.91
2022-10-06T14:55:44.780Z,100791.00
2022-10-06T14:58:14.399Z,100796.75
2022-10-06T15:00:43.238Z,100797.56
2022-10-06T15:03:10.170Z,100791.16
2022-10-06T15:05:56.816Z,100787.25
2022-10-06T15:08:23.408Z,100782.56
2022-10-06T15:10:53.313Z,100783.63
2022-10-06T15:13:20.040Z,100780.28
2022-10-06T15:16:16.471Z,100773.88
2022-10-06T15:18:44.320Z,100769.66
2022-10-06T15:21:12.655Z,100779.16
2022-10-06T15:23:39.656Z,100767.06
2022-10-06T15:26:25.873Z,100758.44
2022-10-06T15:29:01.824Z,100763.16
2022-10-06T15:31:44.260Z,100758.44
2022-10-06T15:34:15.827Z,100755.38
2022-10-06T15:36:43.180Z,100764.19
2022-10-06T15:39:21.758Z,100758.34
2022-10-06T15:41:49.179Z,100760.75
2022-10-06T15:44:17.076Z,100763.25
2022-10-06T15:46:46.799Z,100760.19
2022-10-06T15:49:16.580Z,100754.03
2022-10-06T15:51:49.078Z,100757.09
2022-10-06T15:54:21.032Z,100767.13
2022-10-06T15:56:52.615Z,100759.91
2022-10-06T15:59:22.656Z,100762.94
2022-10-06T16:01:51.617Z,100752.44
2022-10-06T16:04:41.828Z,100764.03
2022-10-06T16:07:16.700Z,100753.72
2022-10-06T16:09:46.329Z,100763.38
2022-10-06T16:12:18.436Z,100756.41
2022-10-06T16:14:49.519Z,100760.47
2022-10-06T16:17:19.141Z,100754.38
2022-10-06T16:19:47.003Z,100761.53
2022-10-06T16:22:22.191Z,100765.34
2022-10-06T16:24:50.009Z,100763.69
2022-10-06T16:27:16.935Z,100761.72
2022-10-06T16:29:59.856Z,100762.22
2022-10-06T16:32:26.695Z,100770.19
2022-10-06T16:34:53.334Z,100766.53
2022-10-06T16:37:23.885Z,100766.75
2022-10-06T16:39:50.633Z,100766.13
2022-10-06T16:52:22.524Z,100752.00
2022-10-06T16:55:31.327Z,100750.53
2022-10-06T16:59:00.808Z,100738.88
2022-10-06T17:01:38.685Z,100750.94
2022-10-06T17:04:19.392Z,100749.81
2022-10-06T17:11:28.845Z,100749.50
2022-10-06T17:14:02.022Z,100735.69
2022-10-06T17:19:56.867Z,100743.09
2022-10-06T17:22:24.697Z,100740.19
2022-10-06T17:24:54.589Z,100746.72
2022-10-06T17:27:22.894Z,100746.16
2022-10-06T17:29:55.575Z,100742.22
2022-10-06T17:32:23.082Z,100736.03
2022-10-06T17:34:55.903Z,100734.31
2022-10-06T17:37:28.340Z,100740.66
2022-10-06T17:40:05.553Z,100744.25
2022-10-06T17:42:32.512Z,100749.75
2022-10-06T17:45:46.972Z,100738.72
2022-10-06T17:48:27.295Z,100742.44
2022-10-06T17:51:00.570Z,100733.06
2022-10-06T17:53:27.541Z,100736.22
2022-10-06T17:55:55.233Z,100736.72
2022-10-06T17:58:23.077Z,100744.91
2022-10-06T18:00:50.917Z,100742.09
2022-10-06T18:03:18.466Z,100739.72
2022-10-06T18:05:53.616Z,100737.50
2022-10-06T18:08:20.693Z,100745.69
2022-10-06T18:11:07.172Z,100735.97
2022-10-06T18:13:42.500Z,100731.28
2022-10-06T18:16:22.855Z,100724.13
2022-10-06T18:19:04.238Z,100733.97
2022-10-06T18:21:43.030Z,100723.41
2022-10-06T18:24:21.117Z,100733.84
2022-10-06T18:29:38.623Z,100732.66
2022-10-06T18:37:56.681Z,100730.56
2022-10-06T18:40:23.519Z,100730.31
2022-10-06T18:42:53.188Z,100732.97
2022-10-06T18:45:49.524Z,100730.22
2022-10-06T18:48:39.358Z,100728.56
2022-10-06T18:54:32.827Z,100735.81
2022-10-06T18:57:07.546Z,100720.47
2022-10-06T18:59:35.312Z,100732.66
2022-10-06T19:02:03.872Z,100727.72
2022-10-06T19:04:35.265Z,100730.00
2022-10-06T19:07:06.591Z,100730.84
2022-10-06T19:10:02.285Z,100723.66
2022-10-06T19:12:57.915Z,100730.84
2022-10-06T19:16:13.362Z,100733.72
2022-10-06T19:29:53.790Z,100739.41
2022-10-06T19:32:42.106Z,100747.44
2022-10-06T19:38:49.310Z,100737.22
2022-10-06T19:41:41.367Z,100736.41
2022-10-06T19:44:09.598Z,100732.47
2022-10-06T19:46:37.722Z,100743.16
2022-10-06T19:49:06.324Z,100742.25
2022-10-06T19:51:34.391Z,100741.28
2022-10-06T19:54:03.543Z,100738.53
2022-10-06T19:56:32.920Z,100731.94
2022-10-06T19:59:01.091Z,100734.94
2022-10-06T20:01:29.206Z,100721.72
2022-10-06T20:03:56.440Z,100722.31
2022-10-06T20:06:23.804Z,100722.13
2022-10-06T20:08:51.760Z,100727.81
2022-10-06T20:11:22.483Z,100727.63
2022-10-06T20:13:50.459Z,100717.06
2022-10-06T20:16:19.934Z,100716.72
2022-10-06T20:18:50.559Z,100721.03
2022-10-06T20:31:04.335Z,100718.28
2022-10-06T20:33:33.926Z,100710.88
2022-10-06T20:36:02.401Z,100707.53
2022-10-06T20:38:47.877Z,100702.63
2022-10-06T20:42:15.294Z,100699.59
2022-10-06T20:45:35.836Z,100697.69
2022-10-06T20:48:02.609Z,100701.59
2022-10-06T20:57:53.728Z,100696.94
2022-10-06T21:07:16.287Z,100687.00
2022-10-06T21:09:43.310Z,100695.25
2022-10-06T21:19:19.337Z,100675.06
2022-10-06T21:25:33.064Z,100675.88
2022-10-06T21:27:59.871Z,100669.28
2022-10-06T21:30:29.936Z,100670.13
2022-10-06T21:32:57.681Z,100668.19
2022-10-06T21:35:24.452Z,100670.38
2022-10-06T21:37:51.301Z,100659.09
2022-10-06T21:40:24.226Z,100662.94
2022-10-06T21:42:51.969Z,100653.00
2022-10-06T21:48:09.421Z,100647.16
2022-10-06T21:50:36.118Z,100641.66
2022-10-06T21:53:02.956Z,100651.84
2022-10-06T21:55:29.623Z,100642.41
2022-10-06T21:57:56.284Z,100635.78
2022-10-06T22:00:23.417Z,100642.97
2022-10-06T22:02:50.433Z,100637.13
2022-10-06T22:05:19.926Z,100626.63
2022-10-06T22:07:46.826Z,100626.34
2022-10-06T22:12:56.325Z,100614.41
2022-10-06T22:18:07.061Z,100613.25
2022-10-06T22:20:34.677Z,100604.97
2022-10-06T22:23:11.678Z,100612.41
2022-10-06T22:25:38.319Z,100607.41
2022-10-06T22:28:19.747Z,100610.41
2022-10-06T22:30:46.427Z,100613.75
2022-10-06T22:33:13.466Z,100609.31
2022-10-06T22:35:52.912Z,100602.16
2022-10-06T22:38:19.610Z,100595.72
2022-10-06T22:40:48.063Z,100591.78
2022-10-06T22:43:14.865Z,100584.38
2022-10-06T22:48:25.581Z,100589.03
2022-10-06T22:50:57.075Z,100593.47
2022-10-06T22:53:25.234Z,100590.38
2022-10-06T22:55:52.733Z,100575.94
2022-10-06T22:58:19.764Z,100592.78
2022-10-06T23:00:46.488Z,100586.69
2022-10-06T23:03:13.433Z,100577.81
2022-10-06T23:05:40.610Z,100584.69
2022-10-06T23:08:08.022Z,100590.69
2022-10-06T23:10:35.870Z,100596.19
2022-10-06T23:13:03.386Z,100586.75
2022-10-06T23:15:30.622Z,100579.00
2022-10-06T23:18:00.519Z,100571.81
2022-10-06T23:20:27.993Z,100573.50
2022-10-06T23:22:55.875Z,100578.41
2022-10-06T23:25:27.024Z,100580.94
2022-10-06T23:27:53.953Z,100562.22
2022-10-06T23:30:20.728Z,100568.56
2022-10-06T23:32:47.376Z,100566.31
2022-10-06T23:35:14.086Z,100569.06
2022-10-06T23:37:40.886Z,100558.31
2022-10-06T23:40:09.127Z,100561.66
2022-10-06T23:42:35.785Z,100552.31
2022-10-06T23:45:02.411Z,100547.78
2022-10-06T23:47:29.490Z,100547.78
2022-10-06T23:49:56.209Z,100546.84
2022-10-06T23:52:22.967Z,100550.13
2022-10-06T23:54:49.737Z,100544.63
2022-10-06T23:57:18.737Z,100537.09
2022-10-06T23:59:45.361Z,100527.41
